Time;durP1;ratioP1;P1;durP2;ratioP2;P2;SDS_P1;SDS_P2;PMS_P1;PMS_P2;Temp;Humidity;BMP_temperature;BMP_pressure;BME280_temperature;BME280_humidity;BME280_pressure;Samples;Min_cycle;Max_cycle;Signal;HPM_P1;HPM_P2
2022/07/06 00:00:30;;;;;;;4.50;0.40;;;;;;;13.58;78.05;102213.03;2080118;28;20107;-70
2022/07/06 00:01:32;;;;;;;5.07;0.50;;;;;;;13.59;79.08;102203.19;2079929;28;20086;-70
2022/07/06 00:02:34;;;;;;;3.33;0.50;;;;;;;13.59;79.31;102204.06;2079863;28;38304;-70
2022/07/06 00:03:36;;;;;;;7.20;0.63;;;;;;;13.58;78.96;102204.97;2080398;28;23393;-69
2022/07/06 00:04:38;;;;;;;3.20;0.30;;;;;;;13.57;78.80;102205.91;2080193;28;20524;-69
2022/07/06 00:05:40;;;;;;;3.17;0.40;;;;;;;13.58;78.78;102204.97;2080161;28;20046;-70
2022/07/06 00:06:44;;;;;;;2.53;0.40;;;;;;;13.57;78.41;102208.59;2080738;28;20029;-70
2022/07/06 00:07:46;;;;;;;6.85;0.57;;;;;;;13.58;79.11;102206.78;2079444;28;28684;-71
2022/07/06 00:08:55;;;;;;;3.58;0.40;;;;;;;13.57;78.83;102205.91;2079431;28;25357;-68
2022/07/06 00:09:59;;;;;;;6.97;0.57;;;;;;;13.57;79.12;102203.19;2080118;28;23715;-70
2022/07/06 00:11:01;;;;;;;3.10;0.40;;;;;;;13.57;78.64;102211.28;2079375;28;20111;-68
2022/07/06 00:12:03;;;;;;;4.57;0.55;;;;;;;13.56;78.97;102198.72;2079749;28;20100;-68
2022/07/06 00:13:06;;;;;;;2.50;0.30;;;;;;;13.57;78.82;102200.50;2079872;28;25841;-69
2022/07/06 00:14:10;;;;;;;4.50;0.30;;;;;;;13.55;78.45;102207.72;2079940;28;24409;-68
2022/07/06 00:15:12;;;;;;;5.43;0.40;;;;;;;13.55;79.27;102202.34;2080547;28;20135;-70
2022/07/06 00:16:14;;;;;;;2.38;0.40;;;;;;;13.58;78.96;102214.84;2079291;28;24893;-68
2022/07/06 00:17:15;;;;;;;4.13;0.30;;;;;;;13.54;79.06;102206.81;2079198;28;20164;-68
2022/07/06 00:18:20;;;;;;;4.70;0.32;;;;;;;13.54;79.17;102208.63;2080169;28;20042;-69
2022/07/06 00:19:22;;;;;;;4.68;0.57;;;;;;;13.55;79.84;102207.72;2079894;28;30049;-69
2022/07/06 00:20:24;;;;;;;6.22;0.60;;;;;;;13.54;79.33;102211.31;2080319;28;21084;-69
2022/07/06 00:21:26;;;;;;;1.98;0.50;;;;;;;13.55;79.57;102210.41;2080051;28;20144;-69
2022/07/06 00:22:28;;;;;;;4.15;0.50;;;;;;;13.54;79.61;102205.94;2079986;28;25707;-69
2022/07/06 00:23:30;;;;;;;4.38;0.75;;;;;;;13.53;79.50;102206.81;2080132;28;20784;-69
2022/07/06 00:24:31;;;;;;;3.40;0.70;;;;;;;13.52;79.90;102208.63;2079941;28;25837;-69
2022/07/06 00:25:35;;;;;;;3.67;0.47;;;;;;;13.51;79.61;102211.34;2080758;28;20836;-69
2022/07/06 00:26:37;;;;;;;5.10;0.50;;;;;;;13.50;79.61;102205.09;2080127;28;26707;-69
2022/07/06 00:27:39;;;;;;;3.97;0.47;;;;;;;13.51;80.17;102208.66;2079329;28;20042;-69
2022/07/06 00:28:44;;;;;;;3.28;0.57;;;;;;;13.50;79.71;102205.09;2079617;28;20046;-69
2022/07/06 00:29:46;;;;;;;4.78;0.52;;;;;;;13.49;79.37;102205.97;2087245;28;20033;-70
2022/07/06 00:30:49;;;;;;;4.40;0.43;;;;;;;13.47;79.34;102210.50;2072222;28;20976;-69
2022/07/06 00:31:53;;;;;;;2.78;0.50;;;;;;;13.47;79.80;102210.50;2071440;28;20104;-69
2022/07/06 00:32:55;;;;;;;5.03;0.57;;;;;;;13.47;80.00;102215.88;2070705;28;30384;-69
2022/07/06 00:33:57;;;;;;;4.45;0.45;;;;;;;13.46;80.28;102213.22;2072225;28;20173;-69
2022/07/06 00:34:59;;;;;;;3.72;0.40;;;;;;;13.47;79.98;102209.63;2072167;28;20124;-69
2022/07/06 00:36:01;;;;;;;2.58;0.50;;;;;;;13.45;79.95;102212.34;2071818;28;20108;-69
2022/07/06 00:37:03;;;;;;;2.25;0.25;;;;;;;13.45;80.43;102211.44;2072347;28;20046;-69
2022/07/06 00:38:05;;;;;;;3.75;0.50;;;;;;;13.44;80.24;102213.25;2071840;28;23332;-69
2022/07/06 00:39:06;;;;;;;4.50;0.80;;;;;;;13.45;80.92;102216.84;2079566;28;20042;-69
2022/07/06 00:40:09;;;;;;;3.15;0.50;;;;;;;13.44;80.39;102209.66;2079636;28;20108;-69
2022/07/06 00:41:13;;;;;;;2.97;0.52;;;;;;;13.43;79.80;102213.28;2070707;28;24164;-69
2022/07/06 00:42:15;;;;;;;4.65;0.80;;;;;;;13.42;80.09;102212.38;2071646;28;20035;-69
2022/07/06 00:43:17;;;;;;;2.22;0.50;;;;;;;13.42;79.99;102206.09;2072137;28;20046;-68
2022/07/06 00:44:18;;;;;;;2.30;0.50;;;;;;;13.42;80.90;102206.97;2072165;28;20034;-69
2022/07/06 00:45:20;;;;;;;5.03;0.60;;;;;;;13.40;80.21;102208.81;2071676;28;20835;-68
2022/07/06 00:46:31;;;;;;;2.60;0.40;;;;;;;13.40;80.64;102206.13;2072087;28;20120;-69
2022/07/06 00:47:34;;;;;;;2.95;0.50;;;;;;;13.40;80.60;102207.94;2071628;28;20931;-69
2022/07/06 00:48:36;;;;;;;4.63;0.50;;;;;;;13.39;80.75;102203.44;2064031;28;20051;-69
2022/07/06 00:50:59;;;;;;;3.97;0.60;;;;;;;13.38;81.60;102212.44;2072226;28;21351;-69
2022/07/06 00:52:04;;;;;;;3.55;0.32;;;;;;;13.37;81.60;102211.56;2071108;28;21140;-70
2022/07/06 00:53:09;;;;;;;5.50;0.77;;;;;;;13.35;81.01;102203.50;2071655;28;20042;-70
2022/07/06 00:54:11;;;;;;;2.50;0.45;;;;;;;13.33;81.24;102199.97;2071693;28;20050;-71
2022/07/06 00:55:15;;;;;;;4.00;0.38;;;;;;;13.33;81.33;102199.97;2079313;28;24036;-70
2022/07/06 00:56:20;;;;;;;5.53;0.95;;;;;;;13.31;81.53;102193.69;2079143;28;20645;-71
2022/07/06 00:57:24;;;;;;;3.97;0.40;;;;;;;13.30;81.41;102208.03;2071277;28;21440;-70
2022/07/06 00:58:29;;;;;;;2.92;0.30;;;;;;;13.28;81.74;102208.94;2063419;28;20245;-70
2022/07/06 00:59:31;;;;;;;7.03;0.70;;;;;;;13.27;81.56;102207.19;2070947;28;35626;-69
2022/07/06 01:00:33;;;;;;;3.78;0.40;;;;;;;13.25;81.93;102209.88;2085413;28;20934;-69
2022/07/06 01:01:35;;;;;;;3.97;0.40;;;;;;;13.25;82.03;102209.00;2087107;28;24076;-68
2022/07/06 01:02:37;;;;;;;2.55;0.80;;;;;;;13.25;82.17;102209.88;2078712;28;26403;-69
2022/07/06 01:03:41;;;;;;;5.07;0.50;;;;;;;13.23;82.05;102214.41;2071629;28;20034;-69
2022/07/06 01:04:46;;;;;;;4.28;0.50;;;;;;;13.21;81.74;102212.63;2079250;28;20075;-69
2022/07/06 01:05:48;;;;;;;5.55;0.45;;;;;;;13.19;82.00;102210.00;2079330;28;21540;-69
2022/07/06 01:06:49;;;;;;;5.07;0.50;;;;;;;13.17;82.10;102219.84;2079331;28;20899;-69
2022/07/06 01:07:53;;;;;;;5.72;0.77;;;;;;;13.17;82.91;102217.16;2079417;28;20131;-68
2022/07/06 01:08:55;;;;;;;5.60;0.57;;;;;;;13.15;82.28;102210.91;2079756;28;20168;-70
2022/07/06 01:09:57;;;;;;;2.95;0.38;;;;;;;13.13;82.29;102210.94;2080218;28;28519;-69
2022/07/06 01:11:02;;;;;;;2.40;0.47;;;;;;;13.12;82.89;102213.66;2079196;28;20128;-71
2022/07/06 01:12:06;;;;;;;6.28;0.57;;;;;;;13.12;83.16;102211.84;2071907;28;20196;-69
2022/07/06 01:13:08;;;;;;;4.38;0.50;;;;;;;13.10;82.91;102210.09;2079032;28;28385;-69
2022/07/06 01:14:12;;;;;;;7.78;0.60;;;;;;;13.10;83.42;102212.78;2079985;28;22905;-69
2022/07/06 01:15:25;;;;;;;2.85;0.47;;;;;;;13.08;83.25;102214.59;2079307;28;20038;-69
2022/07/06 01:16:30;;;;;;;4.60;0.63;;;;;;;13.06;83.09;102216.41;2073310;28;20987;-69
2022/07/06 01:17:33;;;;;;;4.00;0.57;;;;;;;13.04;82.89;102210.19;2080175;28;29767;-69
2022/07/06 01:18:41;;;;;;;7.63;0.80;;;;;;;13.04;83.99;102208.38;2079021;28;20104;-69
2022/07/06 01:19:44;;;;;;;2.00;0.60;;;;;;;13.04;83.36;102216.44;2072489;28;20192;-69
2022/07/06 01:20:45;;;;;;;3.45;0.50;;;;;;;13.02;83.50;102207.50;2079343;28;20097;-69
2022/07/06 01:21:47;;;;;;;4.15;0.45;;;;;;;13.03;83.23;102209.28;2079434;28;20109;-68
2022/07/06 01:22:52;;;;;;;5.43;0.80;;;;;;;13.04;83.79;102210.19;2071144;28;20950;-70
2022/07/06 01:23:54;;;;;;;3.35;0.68;;;;;;;13.04;83.87;102202.09;2064079;28;20110;-68
2022/07/06 01:24:58;;;;;;;4.03;0.60;;;;;;;13.04;84.41;102208.38;2071490;28;20039;-70
2022/07/06 01:26:00;;;;;;;4.65;0.68;;;;;;;13.05;83.83;102204.78;2079197;28;20859;-68
2022/07/06 01:27:03;;;;;;;2.72;0.40;;;;;;;13.06;83.47;102205.66;2080161;28;20252;-69
2022/07/06 01:28:05;;;;;;;7.00;0.70;;;;;;;13.06;84.22;102208.34;2079537;28;23095;-70
2022/07/06 01:29:07;;;;;;;4.03;0.57;;;;;;;13.05;83.29;102212.84;2079793;28;20926;-69
2022/07/06 01:30:15;;;;;;;3.70;0.50;;;;;;;13.07;83.88;102212.84;2079535;28;23667;-69
2022/07/06 01:31:26;;;;;;;4.57;0.68;;;;;;;13.06;83.95;102202.97;2080064;28;21574;-69
2022/07/06 01:32:28;;;;;;;4.65;0.40;;;;;;;13.08;83.52;102206.53;2080050;28;20100;-71
2022/07/06 01:33:30;;;;;;;2.60;0.65;;;;;;;13.08;84.03;102204.75;2079299;28;20116;-68
2022/07/06 01:34:32;;;;;;;4.25;0.73;;;;;;;13.08;83.30;102211.91;2079540;28;20157;-69
2022/07/06 01:35:38;;;;;;;4.63;0.45;;;;;;;13.08;83.94;102206.53;2070772;28;33327;-69
2022/07/06 01:36:45;;;;;;;5.13;0.40;;;;;;;13.09;83.98;102202.94;2080613;28;21461;-69
2022/07/06 01:37:49;;;;;;;5.43;0.50;;;;;;;13.08;83.70;102204.75;2086227;28;20796;-70
2022/07/06 01:38:59;;;;;;;5.63;0.47;;;;;;;13.08;83.75;102204.75;2087364;28;20041;-69
2022/07/06 01:40:06;;;;;;;2.33;0.38;;;;;;;13.07;83.76;102197.59;2078847;28;20753;-68
2022/07/06 01:41:08;;;;;;;3.25;0.52;;;;;;;13.08;83.76;102206.53;2079187;28;29514;-69
2022/07/06 01:42:12;;;;;;;10.50;0.55;;;;;;;13.08;84.75;102198.47;2078994;28;20132;-69
2022/07/06 01:43:15;;;;;;;5.88;0.68;;;;;;;13.09;84.28;102200.25;2079012;28;20137;-70
2022/07/06 01:44:17;;;;;;;5.63;0.68;;;;;;;13.08;83.45;102196.69;2079113;28;20050;-69
2022/07/06 01:45:19;;;;;;;3.08;0.50;;;;;;;13.09;84.01;102194.88;2079382;28;20030;-69
2022/07/06 01:46:21;;;;;;;3.95;0.65;;;;;;;13.10;84.13;102204.69;2078728;28;20046;-71
2022/07/06 01:47:23;;;;;;;4.55;0.52;;;;;;;13.11;83.55;102209.19;2071161;28;20228;-70
2022/07/06 01:48:26;;;;;;;3.35;0.57;;;;;;;13.11;83.76;102203.81;2079158;28;20045;-71
2022/07/06 01:49:28;;;;;;;4.00;0.65;;;;;;;13.11;84.25;102199.31;2079154;28;20146;-70
2022/07/06 01:50:30;;;;;;;3.05;0.50;;;;;;;13.11;83.72;102201.13;2062736;28;20157;-70
2022/07/06 01:51:32;;;;;;;4.22;0.55;;;;;;;13.10;83.32;102196.63;2071567;28;20038;-70
2022/07/06 01:52:35;;;;;;;2.60;0.40;;;;;;;13.10;83.38;102211.00;2078824;28;20042;-70
2022/07/06 01:53:38;;;;;;;6.35;0.65;;;;;;;13.10;83.75;102202.00;2079286;28;20992;-71
2022/07/06 01:54:42;;;;;;;4.28;0.73;;;;;;;13.09;83.57;102201.13;2078678;28;20038;-70
2022/07/06 01:55:44;;;;;;;4.03;0.60;;;;;;;13.11;83.41;102206.50;2079691;28;20979;-71
2022/07/06 01:56:45;;;;;;;7.80;0.77;;;;;;;13.11;84.26;102199.31;2078760;28;20042;-70
2022/07/06 01:57:47;;;;;;;8.20;0.80;;;;;;;13.11;83.99;102201.13;2079355;28;20038;-70
2022/07/06 01:58:49;;;;;;;3.92;0.50;;;;;;;13.11;83.24;102201.13;2087309;28;20093;-70
2022/07/06 01:59:51;;;;;;;4.53;0.50;;;;;;;13.12;83.96;102200.22;2078884;28;20042;-70
2022/07/06 02:00:53;;;;;;;6.82;0.60;;;;;;;13.11;83.25;102198.44;2079106;28;20046;-70
2022/07/06 02:01:55;;;;;;;4.68;0.60;;;;;;;13.09;83.99;102198.44;2079024;28;20042;-71
2022/07/06 02:02:59;;;;;;;4.40;0.70;;;;;;;13.09;84.00;102202.94;2078619;28;20077;-70
2022/07/06 02:04:01;;;;;;;6.88;0.70;;;;;;;13.08;83.65;102201.16;2079230;28;20054;-70
2022/07/06 02:05:03;;;;;;;5.03;0.75;;;;;;;13.06;83.96;102201.16;2079849;28;21347;-71
2022/07/06 02:06:06;;;;;;;3.47;0.60;;;;;;;13.06;83.59;102198.47;2079364;28;20328;-70
2022/07/06 02:07:08;;;;;;;2.85;0.50;;;;;;;13.06;83.92;102203.84;2079133;28;20042;-70
2022/07/06 02:08:09;;;;;;;4.43;0.50;;;;;;;13.04;83.86;102199.41;2079840;28;20092;-70
2022/07/06 02:09:11;;;;;;;7.75;0.70;;;;;;;13.03;84.05;102201.22;2078324;28;20034;-70
2022/07/06 02:10:13;;;;;;;5.00;0.60;;;;;;;13.02;84.11;102193.19;2079071;28;20046;-70
2022/07/06 02:11:18;;;;;;;5.85;0.80;;;;;;;13.02;84.43;102198.56;2078731;28;20042;-70
2022/07/06 02:12:23;;;;;;;3.95;0.63;;;;;;;13.02;84.46;102193.19;2079377;28;20119;-71
2022/07/06 02:13:25;;;;;;;5.40;0.60;;;;;;;13.02;83.96;102202.13;2079137;28;20818;-70
2022/07/06 02:14:27;;;;;;;4.88;0.77;;;;;;;13.01;83.88;102202.13;2079496;28;20093;-70
2022/07/06 02:15:29;;;;;;;4.00;0.60;;;;;;;13.00;83.92;102198.56;2079079;28;20700;-70
2022/07/06 02:16:33;;;;;;;6.90;0.80;;;;;;;13.01;84.52;102194.06;2079078;28;20186;-70
2022/07/06 02:17:35;;;;;;;4.28;0.77;;;;;;;13.00;84.32;102193.19;2087897;28;20084;-70
2022/07/06 02:18:37;;;;;;;3.83;0.75;;;;;;;12.99;84.74;102191.41;2081509;28;20053;-70
2022/07/06 02:19:43;;;;;;;4.50;0.57;;;;;;;12.99;84.42;102196.78;2080809;28;20357;-71
2022/07/06 02:20:45;;;;;;;2.95;0.60;;;;;;;12.97;84.23;102199.50;2080603;28;20088;-69
2022/07/06 02:21:47;;;;;;;5.93;0.73;;;;;;;12.99;84.57;102192.31;2080380;28;20215;-69
2022/07/06 02:22:51;;;;;;;4.85;0.70;;;;;;;12.97;84.15;102188.75;2088355;28;20068;-71
2022/07/06 02:23:53;;;;;;;5.15;0.70;;;;;;;12.97;83.85;102199.50;2080599;28;20092;-69
2022/07/06 02:24:55;;;;;;;6.50;0.70;;;;;;;12.97;84.00;102194.13;2080352;28;20874;-71
2022/07/06 02:26:00;;;;;;;4.40;0.65;;;;;;;12.97;83.91;102199.50;2080309;28;21015;-69
2022/07/06 02:27:03;;;;;;;6.38;0.65;;;;;;;12.96;84.40;102189.66;2081318;28;20447;-69
2022/07/06 02:28:05;;;;;;;3.78;0.70;;;;;;;12.97;84.48;102191.44;2079879;28;20088;-69
2022/07/06 02:29:07;;;;;;;6.28;0.85;;;;;;;12.96;84.26;102188.78;2072337;28;20046;-69
2022/07/06 02:30:10;;;;;;;4.50;0.70;;;;;;;12.95;84.93;102193.25;2072175;28;20057;-70
2022/07/06 02:31:13;;;;;;;4.13;0.55;;;;;;;12.99;84.76;102188.72;2080487;28;20069;-69
2022/07/06 02:32:14;;;;;;;5.50;0.80;;;;;;;12.96;83.80;102197.72;2079717;28;27733;-69
2022/07/06 02:33:16;;;;;;;4.25;0.60;;;;;;;12.99;84.61;102203.06;2079906;28;20498;-69
2022/07/06 02:34:21;;;;;;;6.32;0.65;;;;;;;12.98;84.26;102195.03;2079654;28;20038;-69
2022/07/06 02:35:23;;;;;;;6.15;0.77;;;;;;;12.98;84.55;102190.53;2080343;28;21074;-69
2022/07/06 02:36:26;;;;;;;5.32;0.73;;;;;;;12.99;84.34;102203.06;2080232;28;20085;-71
2022/07/06 02:37:31;;;;;;;4.88;0.75;;;;;;;12.98;84.46;102193.22;2072358;28;20144;-69
2022/07/06 02:38:33;;;;;;;6.18;0.70;;;;;;;12.96;84.08;102189.66;2080595;28;20029;-70
2022/07/06 02:39:35;;;;;;;3.72;0.63;;;;;;;12.96;83.73;102196.84;2088388;28;20909;-70
2022/07/06 02:40:40;;;;;;;4.25;0.77;;;;;;;12.95;84.33;102204.00;2080593;28;20042;-68
2022/07/06 02:41:41;;;;;;;3.05;0.70;;;;;;;12.95;84.28;102195.94;2080132;28;20030;-69
2022/07/06 02:42:44;;;;;;;4.00;0.73;;;;;;;12.95;84.76;102201.31;2080502;28;20788;-72
2022/07/06 02:43:46;;;;;;;4.65;0.70;;;;;;;12.94;84.56;102199.53;2080017;28;20111;-70
2022/07/06 02:44:50;;;;;;;7.28;0.80;;;;;;;12.93;84.57;102200.44;2079755;28;20136;-68
2022/07/06 02:45:52;;;;;;;5.18;0.68;;;;;;;12.93;84.53;102203.13;2080132;28;20046;-69
2022/07/06 02:46:54;;;;;;;4.45;1.00;;;;;;;12.92;84.72;102201.38;2071582;28;20090;-69
2022/07/06 02:47:57;;;;;;;7.72;0.90;;;;;;;12.92;84.72;102204.06;2071640;28;20158;-70
2022/07/06 02:49:02;;;;;;;5.38;0.90;;;;;;;12.92;85.07;102205.81;2080019;28;20059;-69
2022/07/06 02:50:05;;;;;;;4.75;0.57;;;;;;;12.92;84.40;102203.13;2080332;28;20910;-69
2022/07/06 02:51:09;;;;;;;4.22;0.68;;;;;;;12.90;85.10;102207.66;2081020;28;20038;-69
2022/07/06 02:52:11;;;;;;;3.95;0.60;;;;;;;12.91;84.86;102204.94;2080179;28;20887;-69
2022/07/06 02:53:13;;;;;;;2.63;0.70;;;;;;;12.90;85.15;102205.88;2072025;28;20161;-69
2022/07/06 02:54:16;;;;;;;4.28;0.90;;;;;;;12.91;84.45;102194.19;2063984;28;20102;-70
2022/07/06 02:55:20;;;;;;;3.00;0.60;;;;;;;12.91;84.95;102204.94;2080781;28;20045;-69
2022/07/06 02:56:23;;;;;;;5.65;0.73;;;;;;;12.91;84.67;102201.38;2080358;28;20038;-69
2022/07/06 02:57:25;;;;;;;2.95;0.82;;;;;;;12.91;84.75;102204.94;2080312;28;20164;-69
2022/07/06 02:58:27;;;;;;;4.25;0.75;;;;;;;12.93;84.76;102208.50;2088425;28;20041;-69
2022/07/06 02:59:29;;;;;;;4.35;0.90;;;;;;;12.93;85.20;102203.13;2088111;28;20046;-69
2022/07/06 03:00:31;;;;;;;5.10;0.70;;;;;;;12.94;85.24;102212.09;2088139;28;20163;-69
2022/07/06 03:01:33;;;;;;;4.13;0.82;;;;;;;12.93;84.80;102213.88;2079804;28;20152;-69
2022/07/06 03:02:36;;;;;;;4.22;0.70;;;;;;;12.94;84.90;102215.66;2080372;28;20038;-69
2022/07/06 03:03:38;;;;;;;6.05;0.93;;;;;;;12.95;85.09;102213.88;2088432;28;20052;-69
2022/07/06 03:04:41;;;;;;;5.05;1.00;;;;;;;12.93;85.06;102213.88;2079727;28;20092;-70
2022/07/06 03:05:46;;;;;;;6.65;0.95;;;;;;;12.94;85.22;102217.47;2080319;28;20030;-69
2022/07/06 03:06:49;;;;;;;5.28;0.90;;;;;;;12.93;85.13;102215.69;2080032;28;20132;-68
2022/07/06 03:07:50;;;;;;;2.70;0.70;;;;;;;12.93;85.20;102219.25;2079844;28;20046;-69
2022/07/06 03:08:53;;;;;;;4.78;0.70;;;;;;;12.93;85.25;102219.25;2072048;28;20801;-69
2022/07/06 03:09:55;;;;;;;3.80;1.00;;;;;;;12.93;85.11;102218.38;2072061;28;20043;-70
2022/07/06 03:10:57;;;;;;;4.35;0.85;;;;;;;12.93;84.90;102218.38;2079996;28;20748;-69
2022/07/06 03:11:59;;;;;;;4.35;0.77;;;;;;;12.92;85.09;102217.50;2088136;28;23100;-69
2022/07/06 03:13:05;;;;;;;4.40;0.80;;;;;;;12.93;85.59;102224.63;2072032;28;20131;-69
2022/07/06 03:14:08;;;;;;;4.45;0.77;;;;;;;12.93;85.09;102219.25;2072738;28;20050;-69
2022/07/06 03:15:12;;;;;;;3.75;0.93;;;;;;;12.94;85.41;102222.84;2080142;28;20858;-69
2022/07/06 03:16:18;;;;;;;4.50;0.80;;;;;;;12.94;85.63;102218.38;2080475;28;20037;-69
2022/07/06 03:17:21;;;;;;;6.70;0.85;;;;;;;12.94;85.75;102221.06;2079697;28;20478;-69
2022/07/06 03:18:23;;;;;;;5.82;0.93;;;;;;;12.97;84.93;102217.41;2080060;28;20881;-69
2022/07/06 03:19:26;;;;;;;6.65;0.90;;;;;;;12.94;84.73;102218.38;2087959;28;20062;-69
2022/07/06 03:20:29;;;;;;;4.30;1.15;;;;;;;12.96;84.51;102219.22;2079940;28;20111;-69
2022/07/06 03:21:31;;;;;;;4.63;1.02;;;;;;;12.98;84.99;102222.78;2079852;28;20033;-69
2022/07/06 03:22:33;;;;;;;3.97;0.68;;;;;;;12.99;84.99;102223.66;2079926;28;20049;-69
2022/07/06 03:23:36;;;;;;;6.50;0.63;;;;;;;12.99;85.14;102227.25;2080150;28;20054;-70
2022/07/06 03:24:39;;;;;;;2.55;0.52;;;;;;;12.99;84.41;102221.88;2088451;28;20930;-69
2022/07/06 03:25:42;;;;;;;2.67;0.70;;;;;;;12.99;84.33;102229.94;2079852;28;20046;-68
2022/07/06 03:26:47;;;;;;;4.63;0.80;;;;;;;13.01;85.28;102219.19;2079768;28;20041;-69
2022/07/06 03:27:49;;;;;;;5.80;0.73;;;;;;;13.00;84.73;102220.06;2079493;28;20050;-70
2022/07/06 03:28:52;;;;;;;4.57;0.65;;;;;;;12.99;84.68;102221.88;2071081;28;20105;-70
2022/07/06 03:29:54;;;;;;;5.38;0.73;;;;;;;13.01;85.05;102218.28;2079746;28;24040;-70
2022/07/06 03:30:56;;;;;;;8.07;0.85;;;;;;;13.01;84.44;102221.88;2079778;28;20183;-70
2022/07/06 03:31:58;;;;;;;6.40;0.80;;;;;;;13.02;84.78;102218.25;2079992;28;20954;-69
2022/07/06 03:33:00;;;;;;;2.92;0.60;;;;;;;13.03;84.21;102222.75;2079376;28;20815;-69
2022/07/06 03:34:06;;;;;;;5.43;0.90;;;;;;;13.05;84.41;102223.59;2080222;28;20116;-69
2022/07/06 03:35:08;;;;;;;5.38;0.63;;;;;;;13.04;84.55;102219.13;2079874;28;20034;-69
2022/07/06 03:36:11;;;;;;;4.32;0.50;;;;;;;13.05;84.21;102223.59;2079945;28;20264;-69
2022/07/06 03:37:15;;;;;;;4.45;0.77;;;;;;;13.06;84.37;102219.09;2079921;28;20046;-68
2022/07/06 03:38:20;;;;;;;7.53;0.70;;;;;;;13.07;84.71;102216.41;2079965;28;20045;-69
2022/07/06 03:39:22;;;;;;;4.35;0.50;;;;;;;13.08;84.30;102219.97;2079301;28;20053;-69
2022/07/06 03:40:25;;;;;;;4.15;0.60;;;;;;;13.09;84.23;102221.78;2079797;28;20034;-68
2022/07/06 03:41:27;;;;;;;2.20;0.60;;;;;;;13.09;84.24;102214.59;2080028;28;20068;-69
2022/07/06 03:42:29;;;;;;;3.67;0.70;;;;;;;13.10;84.72;102220.84;2080741;28;20111;-69
2022/07/06 03:43:31;;;;;;;5.13;0.80;;;;;;;13.10;84.25;102215.47;2079531;28;20148;-70
2022/07/06 03:44:33;;;;;;;4.40;0.60;;;;;;;13.10;84.10;102218.16;2080196;28;20197;-69
2022/07/06 03:45:36;;;;;;;7.30;0.73;;;;;;;13.09;84.79;102211.88;2079716;28;20045;-70
2022/07/06 03:46:39;;;;;;;3.65;0.88;;;;;;;13.09;84.33;102221.78;2080053;28;20042;-69
2022/07/06 03:47:41;;;;;;;5.47;0.73;;;;;;;13.09;84.19;102211.00;2088145;28;20049;-69
2022/07/06 03:48:44;;;;;;;3.38;0.65;;;;;;;13.09;84.68;102213.69;2079682;28;20058;-69
2022/07/06 03:49:46;;;;;;;6.85;1.08;;;;;;;13.09;84.51;102219.06;2079460;28;20093;-69
2022/07/06 03:50:51;;;;;;;5.50;0.90;;;;;;;13.09;84.43;102219.06;2079853;28;20155;-69
2022/07/06 03:51:54;;;;;;;4.25;0.60;;;;;;;13.09;84.90;102213.69;2079669;28;20175;-69
2022/07/06 03:52:57;;;;;;;3.53;0.65;;;;;;;13.10;84.44;102213.69;2079807;28;20053;-69
2022/07/06 03:54:01;;;;;;;3.00;0.70;;;;;;;13.11;85.06;102219.94;2079623;28;22470;-69
2022/07/06 03:55:10;;;;;;;6.88;0.90;;;;;;;13.11;84.19;102220.81;2080568;28;20830;-66
2022/07/06 03:56:29;;;;;;;4.93;0.85;;;;;;;13.12;84.74;102216.34;2079697;28;20041;-70
2022/07/06 03:57:39;;;;;;;3.20;0.60;;;;;;;13.14;85.02;102212.72;2081276;28;20041;-69
2022/07/06 03:58:42;;;;;;;1.98;0.80;;;;;;;13.13;84.14;102215.44;2079929;28;20986;-69
2022/07/06 03:59:45;;;;;;;4.55;0.80;;;;;;;13.15;84.18;102218.97;2079744;28;20776;-69
2022/07/06 04:00:46;;;;;;;4.88;0.73;;;;;;;13.17;84.16;102217.16;2087430;28;20083;-69
2022/07/06 04:01:52;;;;;;;2.15;0.60;;;;;;;13.16;84.49;102213.59;2087479;28;20045;-70
2022/07/06 04:02:55;;;;;;;4.30;0.80;;;;;;;13.17;84.50;102220.75;2087967;28;20034;-69
2022/07/06 04:04:03;;;;;;;6.20;0.80;;;;;;;13.19;84.12;102215.38;2087839;28;20033;-70
2022/07/06 04:05:07;;;;;;;5.53;1.42;;;;;;;13.19;84.47;102223.44;2087825;28;20899;-68
2022/07/06 04:06:09;;;;;;;4.82;0.82;;;;;;;13.20;84.55;102225.19;2087845;28;20894;-69
2022/07/06 04:07:11;;;;;;;1.42;0.50;;;;;;;13.22;83.55;102225.19;2087967;28;20219;-70
2022/07/06 04:08:13;;;;;;;5.15;0.65;;;;;;;13.23;84.51;102221.59;2087894;28;20037;-69
2022/07/06 04:09:21;;;;;;;2.90;0.60;;;;;;;13.23;84.24;102218.91;2079460;28;20038;-70
2022/07/06 04:10:23;;;;;;;2.95;0.60;;;;;;;13.24;83.92;102218.84;2080014;28;20049;-70
2022/07/06 04:11:25;;;;;;;3.90;0.60;;;;;;;13.25;84.13;102214.38;2079570;28;20092;-70
2022/07/06 04:12:28;;;;;;;1.23;0.52;;;;;;;13.26;83.95;102221.53;2087918;28;20043;-70
2022/07/06 04:13:30;;;;;;;3.88;0.70;;;;;;;13.26;84.16;102219.75;2079645;28;20069;-69
2022/07/06 04:14:32;;;;;;;4.95;0.60;;;;;;;13.28;83.99;102225.09;2079805;28;20188;-70
2022/07/06 04:15:34;;;;;;;5.65;0.77;;;;;;;13.28;83.68;102219.69;2088052;28;20810;-69
2022/07/06 04:16:36;;;;;;;3.75;0.70;;;;;;;13.31;83.69;102225.09;2079300;28;20979;-69
2022/07/06 04:17:53;;;;;;;5.38;0.98;;;;;;;13.31;83.90;102219.69;2079752;28;21009;-70
2022/07/06 04:19:05;;;;;;;5.38;0.88;;;;;;;13.33;83.67;102224.16;2074697;28;21242;-70
2022/07/06 04:20:09;;;;;;;7.70;0.98;;;;;;;13.35;84.09;102222.34;2071328;28;20042;-71
2022/07/06 04:21:13;;;;;;;3.30;0.65;;;;;;;13.38;83.57;102223.22;2071806;28;20043;-71
2022/07/06 04:22:15;;;;;;;3.33;0.73;;;;;;;13.40;83.69;102221.38;2079622;28;20870;-70
2022/07/06 04:23:17;;;;;;;6.15;0.80;;;;;;;13.43;83.74;102215.97;2079935;28;20037;-70
2022/07/06 04:24:19;;;;;;;1.80;0.60;;;;;;;13.46;83.21;102226.66;2079545;28;20907;-71
2022/07/06 04:25:21;;;;;;;4.90;0.65;;;;;;;13.46;83.74;102219.50;2079664;28;20077;-71
2022/07/06 04:26:23;;;;;;;5.00;0.77;;;;;;;13.48;83.28;102224.88;2087794;28;20174;-70
2022/07/06 04:27:25;;;;;;;5.32;0.82;;;;;;;13.54;82.79;102224.75;2087343;28;20164;-70
2022/07/06 04:28:28;;;;;;;5.65;0.93;;;;;;;13.54;82.60;102222.94;2079386;28;20038;-70
2022/07/06 04:29:30;;;;;;;1.90;0.60;;;;;;;13.58;82.55;102222.91;2071332;28;20065;-71
2022/07/06 04:30:32;;;;;;;3.65;1.10;;;;;;;13.58;82.77;102228.31;2070899;28;20056;-69
2022/07/06 04:31:35;;;;;;;3.85;0.90;;;;;;;13.60;82.41;102227.34;2079582;28;20065;-70
2022/07/06 04:32:38;;;;;;;4.57;1.08;;;;;;;13.65;82.13;102230.88;2080047;28;20038;-71
2022/07/06 04:33:42;;;;;;;5.70;0.70;;;;;;;13.68;82.21;102235.34;2079693;28;20156;-71
2022/07/06 04:34:44;;;;;;;4.68;0.90;;;;;;;13.69;82.47;102224.53;2087318;28;20191;-71
2022/07/06 04:35:46;;;;;;;2.47;0.50;;;;;;;13.74;82.26;102229.84;2087739;28;20045;-70
2022/07/06 04:36:48;;;;;;;3.65;0.70;;;;;;;13.78;81.46;102228.00;2087559;28;20050;-70
2022/07/06 04:37:49;;;;;;;3.70;0.80;;;;;;;13.80;81.46;102228.84;2079583;28;20167;-71
2022/07/06 04:38:56;;;;;;;3.92;0.80;;;;;;;13.79;81.47;102222.59;2087387;28;20045;-70
2022/07/06 04:39:58;;;;;;;5.95;0.65;;;;;;;13.87;81.03;102225.16;2079195;28;20054;-71
2022/07/06 04:41:00;;;;;;;6.75;1.25;;;;;;;13.87;80.93;102225.16;2079611;28;20922;-71
2022/07/06 04:42:02;;;;;;;4.70;0.70;;;;;;;13.93;80.86;102222.38;2086764;28;21068;-71
2022/07/06 04:43:04;;;;;;;6.55;1.10;;;;;;;13.94;80.52;102225.06;2087666;28;20053;-71
2022/07/06 04:44:07;;;;;;;3.45;0.77;;;;;;;14.06;80.44;102229.31;2087615;28;20103;-71
2022/07/06 04:45:10;;;;;;;4.15;0.80;;;;;;;14.09;80.05;102221.19;2087603;28;20579;-71
2022/07/06 04:46:12;;;;;;;2.35;0.52;;;;;;;14.22;79.71;102212.91;2087209;28;20956;-69
2022/07/06 04:47:17;;;;;;;2.72;0.50;;;;;;;14.33;78.90;102216.28;2087544;28;20394;-69
2022/07/06 04:48:23;;;;;;;4.20;0.63;;;;;;;14.70;78.31;102219.22;2079457;28;20038;-70
2022/07/06 04:49:25;;;;;;;5.18;0.80;;;;;;;14.87;76.83;102215.28;2087403;28;20157;-70
2022/07/06 04:50:27;;;;;;;6.32;0.70;;;;;;;15.00;76.21;102216.84;2087417;28;20978;-70
2022/07/06 04:51:37;;;;;;;3.72;0.50;;;;;;;15.09;75.43;102213.03;2079963;28;20038;-70
2022/07/06 04:52:41;;;;;;;3.05;0.60;;;;;;;15.28;74.55;102211.72;2087762;28;20045;-70
2022/07/06 04:53:46;;;;;;;3.75;0.75;;;;;;;15.43;73.59;102209.59;2079364;28;20034;-70
2022/07/06 04:54:51;;;;;;;8.68;0.50;;;;;;;15.72;72.93;102206.22;2071843;28;20824;-69